Portada
METAR-TAF:

METAR-TAF

Aeroports :

Aeroport Internacional de Puebla

Puebla, Mèxic

latitud: 19-03N, longitud: 098-10W, altitud: 2179 m

Observació

L'informe es va fer fa 1 hora i 8 minuts, a les 00:43 UTC
Vent 9 kt del Sud/Sud-Oest
Temperatura 20°C
Humitat 17%
Pressió 1028 hPa
Visibilitat: 16.1 km
Cel clar

METAR: MMPB 220043Z 20009KT 10SM SKC 20/M06 A3035 RMK HZY CI

Hora: 19:51 (01:51 UTC)

Pronòstic

L'informe es va fer fa 8 hores i 34 minuts, a les 17:17 UTC
Pronòstic vàlid del 21 a les 18 UTC al 22 a les 18 UTC
Vent 10 kt del Nord
Visibilitat: 10 km
Cel clar
Evolucionant progressivament
l' 21 a les 19 UTC al 21 a les 21 UTC
Vent 15 kt del Sud
Visibilitat: 10 km
Cel clar
A partir de les 22 a les 0300 UTC
Vent 5 kt del Nord/Nord-Est
Visibilitat: 10 km
Cel clar
A partir de les 22 a les 1500 UTC
Vent 10 kt del Nord
Visibilitat: 10 km
Cel clar

TAF: MMPB 211717Z 2118/2218 36010KT P6SM SKC BECMG 2119/2121 18015KT P6SM SKC FM220300 02005KT P6SM SKC FM221500 35010KT P6SM SKC

Observacions i pronòstics meteorològics de més de 4000 aeroports (METAR i TAF).

Les estacions disponibles són els punts grocs i vermells al mapa.

Posi el ratolí al punt desitjat per veure el nom de l'estació.

Feu clic per veure les observacions i els pronòstics meteorològics.

Per canviar el mapa: feu clic els botons verds amb una creu de color negre per apropar; al botó verd amb un guió per allunyar la imatge; o en les fletxes verdes per a mapes adjacents.


METAR-TAF: